Time;durP1;ratioP1;P1;durP2;ratioP2;P2;SDS_P1;SDS_P2;PMS_P1;PMS_P2;Temp;Humidity;BMP_temperature;BMP_pressure;BME280_temperature;BME280_humidity;BME280_pressure;Samples;Min_cycle;Max_cycle;Signal;HPM_P1;HPM_P2
2021/03/26 00:00:30;;;;;;;32.08;21.52;;;9.00;91.70;;;;;;2064892;28;20033;-76
2021/03/26 00:01:35;;;;;;;32.85;21.52;;;9.00;91.70;;;;;;2071690;28;20038;-77
2021/03/26 00:02:36;;;;;;;32.00;21.48;;;9.00;91.80;;;;;;2072314;28;20040;-76
2021/03/26 00:03:40;;;;;;;32.28;21.90;;;8.90;91.80;;;;;;2064703;28;20037;-76
2021/03/26 00:04:41;;;;;;;33.03;22.02;;;8.90;91.90;;;;;;2049029;28;20474;-76
2021/03/26 00:05:44;;;;;;;29.67;20.85;;;8.90;91.90;;;;;;2056823;28;20133;-76
2021/03/26 00:06:47;;;;;;;30.55;20.90;;;8.90;91.90;;;;;;2065319;28;20512;-76
2021/03/26 00:07:48;;;;;;;29.90;20.48;;;8.90;92.00;;;;;;2065187;28;20026;-76
2021/03/26 00:08:49;;;;;;;31.25;20.90;;;8.90;92.00;;;;;;2064958;28;20030;-76
2021/03/26 00:09:49;;;;;;;30.63;21.05;;;8.80;92.00;;;;;;2064247;28;20022;-76
2021/03/26 00:10:50;;;;;;;32.53;21.10;;;8.80;92.00;;;;;;2064753;28;20022;-76
2021/03/26 00:11:53;;;;;;;33.08;22.17;;;8.80;92.00;;;;;;2064500;28;20038;-76
2021/03/26 00:12:54;;;;;;;31.98;21.17;;;8.80;92.00;;;;;;2057053;28;20476;-75
2021/03/26 00:13:55;;;;;;;31.15;20.98;;;8.70;91.90;;;;;;2064466;28;20041;-77
2021/03/26 00:14:55;;;;;;;33.72;21.35;;;8.70;92.00;;;;;;2064683;28;20125;-76
2021/03/26 00:15:56;;;;;;;32.95;20.65;;;8.70;92.00;;;;;;2064762;28;20030;-76
2021/03/26 00:16:56;;;;;;;31.02;21.02;;;8.70;92.10;;;;;;2065324;28;20022;-76
2021/03/26 00:17:57;;;;;;;31.38;20.52;;;8.70;92.10;;;;;;2065378;28;20033;-76
2021/03/26 00:18:57;;;;;;;32.47;21.08;;;8.70;92.10;;;;;;2064890;28;20022;-76
2021/03/26 00:19:59;;;;;;;31.75;21.13;;;8.60;92.20;;;;;;2065324;28;20114;-75
2021/03/26 00:21:00;;;;;;;30.20;20.15;;;8.60;92.20;;;;;;2065437;28;20022;-76
2021/03/26 00:22:00;;;;;;;31.60;20.92;;;8.60;92.30;;;;;;2065352;28;20505;-76
2021/03/26 00:23:02;;;;;;;35.00;21.98;;;8.60;92.30;;;;;;2065082;28;20710;-77
2021/03/26 00:24:04;;;;;;;33.13;21.95;;;8.50;92.40;;;;;;2064946;28;20022;-76
2021/03/26 00:25:07;;;;;;;31.88;21.60;;;8.50;92.40;;;;;;2065092;28;20031;-76
2021/03/26 00:26:08;;;;;;;32.20;21.85;;;8.50;92.40;;;;;;2064944;28;20026;-75
2021/03/26 00:27:08;;;;;;;35.55;22.10;;;8.50;92.50;;;;;;2064506;28;20046;-74
2021/03/26 00:28:09;;;;;;;33.83;21.90;;;8.40;92.50;;;;;;2064487;28;20023;-74
2021/03/26 00:29:13;;;;;;;36.08;22.80;;;8.40;92.70;;;;;;2064070;28;20573;-74
2021/03/26 00:30:16;;;;;;;37.65;23.00;;;8.40;92.80;;;;;;2064455;28;20030;-74
2021/03/26 00:31:17;;;;;;;37.55;23.52;;;8.40;92.90;;;;;;2064516;28;20031;-75
2021/03/26 00:32:18;;;;;;;33.75;21.95;;;8.30;92.90;;;;;;2065137;28;20528;-75
2021/03/26 00:33:19;;;;;;;37.97;25.17;;;8.30;93.00;;;;;;2066356;28;20410;-75
2021/03/26 00:34:19;;;;;;;38.95;25.52;;;8.30;93.30;;;;;;2067134;28;20034;-74
2021/03/26 00:35:22;;;;;;;40.17;26.75;;;8.20;93.50;;;;;;2067194;28;20041;-75
2021/03/26 00:36:25;;;;;;;39.60;25.92;;;8.20;93.80;;;;;;2067446;28;20053;-75
2021/03/26 00:37:26;;;;;;;36.83;24.67;;;8.20;93.80;;;;;;2067847;28;20506;-75
2021/03/26 00:38:27;;;;;;;38.33;24.35;;;8.20;93.80;;;;;;2068354;28;20038;-75
2021/03/26 00:39:28;;;;;;;35.80;23.65;;;8.10;93.90;;;;;;2065694;28;20102;-74
2021/03/26 00:40:29;;;;;;;32.22;22.45;;;8.10;93.90;;;;;;2057032;28;20517;-75
2021/03/26 00:41:30;;;;;;;36.15;23.60;;;8.10;94.00;;;;;;2056716;28;20066;-75
2021/03/26 00:42:30;;;;;;;35.70;23.92;;;8.10;94.00;;;;;;2064533;28;20517;-74
2021/03/26 00:43:31;;;;;;;36.30;23.33;;;8.00;94.10;;;;;;2064997;28;20031;-74
2021/03/26 00:44:32;;;;;;;34.30;22.80;;;8.00;94.20;;;;;;2064549;28;20635;-75
2021/03/26 00:45:36;;;;;;;36.78;23.13;;;8.00;94.20;;;;;;2064398;28;20042;-74
2021/03/26 00:46:39;;;;;;;36.20;23.23;;;8.00;94.30;;;;;;2064973;28;20026;-75
2021/03/26 00:47:41;;;;;;;36.33;23.40;;;7.90;94.30;;;;;;2064287;28;20394;-75
2021/03/26 00:48:41;;;;;;;36.70;23.98;;;7.90;94.30;;;;;;2056215;28;20521;-74
2021/03/26 00:49:42;;;;;;;38.65;24.08;;;7.90;94.20;;;;;;2064005;28;20042;-74
2021/03/26 00:50:49;;;;;;;36.13;23.45;;;7.90;94.30;;;;;;2064952;28;20437;-74
2021/03/26 00:51:49;;;;;;;38.47;24.52;;;7.90;94.40;;;;;;2056367;28;20129;-74
2021/03/26 00:52:50;;;;;;;36.78;24.48;;;7.80;94.40;;;;;;2056272;28;20041;-74
2021/03/26 00:53:51;;;;;;;36.00;23.25;;;7.80;94.40;;;;;;2064193;28;20023;-74
2021/03/26 00:54:52;;;;;;;37.92;24.58;;;7.80;94.50;;;;;;2064405;28;20026;-74
2021/03/26 00:55:53;;;;;;;35.78;24.13;;;7.80;94.40;;;;;;2064251;28;20474;-74
2021/03/26 00:56:54;;;;;;;38.67;25.27;;;7.80;94.40;;;;;;2064950;28;20026;-74
2021/03/26 00:57:55;;;;;;;36.30;24.50;;;7.80;94.40;;;;;;2064816;28;20022;-75
2021/03/26 00:58:56;;;;;;;36.90;24.08;;;7.80;94.40;;;;;;2063886;28;20018;-75
2021/03/26 00:59:56;;;;;;;38.85;25.27;;;7.70;94.40;;;;;;2065129;28;20028;-75
2021/03/26 01:00:57;;;;;;;38.70;24.30;;;7.70;94.40;;;;;;2065483;28;20026;-75
2021/03/26 01:01:58;;;;;;;41.90;26.08;;;7.70;94.40;;;;;;2065171;28;20057;-75
2021/03/26 01:02:59;;;;;;;39.88;26.17;;;7.70;94.50;;;;;;2064769;28;20050;-75
2021/03/26 01:04:00;;;;;;;43.03;25.65;;;7.70;94.40;;;;;;2064513;28;20121;-74
2021/03/26 01:05:05;;;;;;;40.55;25.80;;;7.70;94.40;;;;;;2064832;28;20397;-75
2021/03/26 01:06:08;;;;;;;39.15;24.88;;;7.70;94.40;;;;;;2065412;28;20014;-75
2021/03/26 01:07:12;;;;;;;37.47;24.48;;;7.70;94.40;;;;;;2067036;28;20101;-74
2021/03/26 01:08:12;;;;;;;38.25;24.52;;;7.60;94.40;;;;;;2066226;28;20534;-75
2021/03/26 01:09:13;;;;;;;37.17;24.40;;;7.60;94.40;;;;;;2066174;28;20034;-74
2021/03/26 01:10:18;;;;;;;37.55;24.23;;;7.60;94.50;;;;;;2066850;28;20733;-75
2021/03/26 01:11:25;;;;;;;36.55;24.38;;;7.60;94.50;;;;;;2066420;28;20101;-74
2021/03/26 01:12:25;;;;;;;39.92;25.35;;;7.60;94.60;;;;;;2066774;28;20085;-74
2021/03/26 01:13:27;;;;;;;40.78;25.88;;;7.50;94.60;;;;;;2066316;28;20157;-74
2021/03/26 01:14:28;;;;;;;39.40;25.58;;;7.50;94.60;;;;;;2065325;28;20018;-75
2021/03/26 01:15:29;;;;;;;37.20;24.25;;;7.50;94.70;;;;;;2064203;28;20029;-74
2021/03/26 01:16:31;;;;;;;38.95;25.35;;;7.40;94.70;;;;;;2056297;28;20031;-75
2021/03/26 01:17:34;;;;;;;40.40;25.63;;;7.40;94.70;;;;;;2064693;28;20025;-76
2021/03/26 01:18:41;;;;;;;38.17;24.45;;;7.40;94.80;;;;;;2064021;28;20054;-74
2021/03/26 01:19:43;;;;;;;36.97;24.05;;;7.40;94.80;;;;;;2055830;28;20042;-74
2021/03/26 01:20:45;;;;;;;38.05;24.20;;;7.40;94.90;;;;;;2056548;28;20035;-74
2021/03/26 01:21:45;;;;;;;38.80;24.80;;;7.40;94.90;;;;;;2064107;28;20026;-74
2021/03/26 01:22:47;;;;;;;37.55;24.90;;;7.30;94.90;;;;;;2064211;28;20030;-74
2021/03/26 01:23:54;;;;;;;37.35;23.85;;;7.30;95.00;;;;;;2064000;28;20658;-75
2021/03/26 01:24:54;;;;;;;36.53;22.85;;;7.30;95.00;;;;;;2056197;28;20029;-75
2021/03/26 01:25:58;;;;;;;37.95;24.20;;;7.30;95.00;;;;;;2056079;28;20093;-75
2021/03/26 01:27:21;;;;;;;37.17;23.90;;;7.30;95.10;;;;;;2061263;28;20047;-75
2021/03/26 01:28:25;;;;;;;38.38;24.40;;;7.30;95.10;;;;;;2063685;28;20679;-77
2021/03/26 01:29:46;;;;;;;36.63;23.23;;;7.30;95.10;;;;;;2063920;28;20030;-76
2021/03/26 01:30:48;;;;;;;39.33;24.05;;;7.20;95.10;;;;;;2063803;28;20026;-76
2021/03/26 01:31:48;;;;;;;36.97;23.45;;;7.20;95.10;;;;;;2063941;28;20026;-76
2021/03/26 01:32:51;;;;;;;33.42;22.77;;;7.20;95.20;;;;;;2055720;28;20019;-76
2021/03/26 01:33:53;;;;;;;35.72;23.13;;;7.20;95.20;;;;;;2056061;28;20027;-76
2021/03/26 01:34:54;;;;;;;36.53;22.77;;;7.20;95.20;;;;;;2047799;28;20077;-76
2021/03/26 01:35:56;;;;;;;35.25;23.20;;;7.20;95.20;;;;;;2055581;28;20058;-76
2021/03/26 01:36:57;;;;;;;36.58;23.48;;;7.10;95.30;;;;;;2063573;28;20036;-76
2021/03/26 01:37:58;;;;;;;36.00;23.27;;;7.10;95.30;;;;;;2063621;28;20117;-76
2021/03/26 01:39:00;;;;;;;35.13;23.05;;;7.10;95.30;;;;;;2063284;28;20030;-76
2021/03/26 01:40:01;;;;;;;36.85;22.65;;;7.10;95.30;;;;;;2055770;28;20031;-76
2021/03/26 01:41:08;;;;;;;35.35;23.50;;;7.10;95.40;;;;;;2055853;28;20081;-76
2021/03/26 01:42:26;;;;;;;34.70;22.65;;;7.10;95.30;;;;;;2056290;28;20062;-76
2021/03/26 01:43:38;;;;;;;37.13;23.55;;;7.10;95.40;;;;;;2066018;28;20482;-74
2021/03/26 01:44:39;;;;;;;36.92;23.10;;;7.10;95.40;;;;;;2063746;28;20120;-75
2021/03/26 01:45:51;;;;;;;;;;;7.00;95.40;;;;;;2057424;28;20040;-75
2021/03/26 01:46:52;;;;;;;38.25;23.42;;;7.00;95.40;;;;;;2063919;28;19909;-75
2021/03/26 01:47:56;;;;;;;38.10;23.85;;;7.00;95.50;;;;;;2063853;28;20034;-75
2021/03/26 01:49:03;;;;;;;35.25;22.88;;;7.00;95.50;;;;;;2055586;28;20038;-76
2021/03/26 01:50:07;;;;;;;39.38;24.52;;;7.00;95.50;;;;;;2063805;28;20436;-75
2021/03/26 01:51:21;;;;;;;38.30;24.05;;;7.00;95.60;;;;;;2064378;28;20080;-75
2021/03/26 01:52:22;;;;;;;39.53;23.73;;;7.00;95.60;;;;;;2064444;28;20102;-76
2021/03/26 01:53:24;;;;;;;36.13;23.75;;;6.90;95.60;;;;;;2064400;28;20026;-75
2021/03/26 01:54:27;;;;;;;37.70;24.80;;;6.90;95.60;;;;;;2063719;28;20064;-75
2021/03/26 01:55:31;;;;;;;36.60;24.40;;;6.90;95.60;;;;;;2055995;28;20027;-75
2021/03/26 01:56:32;;;;;;;40.70;23.83;;;6.90;95.70;;;;;;2063731;28;20563;-75
2021/03/26 01:57:51;;;;;;;41.90;25.25;;;6.90;95.70;;;;;;2058233;28;20019;-75
2021/03/26 01:58:58;;;;;;;39.63;24.60;;;6.80;95.70;;;;;;2063452;28;20038;-75
2021/03/26 01:59:59;;;;;;;39.55;25.15;;;6.80;95.70;;;;;;2064429;28;20023;-76
2021/03/26 02:01:07;;;;;;;36.53;23.98;;;6.80;95.70;;;;;;2063979;28;20022;-75
2021/03/26 02:02:20;;;;;;;35.88;23.33;;;6.80;95.80;;;;;;2056580;28;20033;-75
2021/03/26 02:03:43;;;;;;;41.13;25.38;;;6.80;95.90;;;;;;2064257;28;20026;-73
2021/03/26 02:04:47;;;;;;;37.35;24.38;;;6.80;96.00;;;;;;2063503;28;20037;-75
2021/03/26 02:06:16;;;;;;;37.17;23.17;;;6.70;96.00;;;;;;2063439;28;20045;-73
2021/03/26 02:07:21;;;;;;;38.28;24.30;;;6.70;96.10;;;;;;2064425;28;20508;-73
2021/03/26 02:08:27;;;;;;;38.53;24.75;;;6.70;96.10;;;;;;2055400;28;20125;-73
2021/03/26 02:09:45;;;;;;;44.15;27.08;;;6.70;96.10;;;;;;2058067;28;20030;-74
2021/03/26 02:10:45;;;;;;;50.75;29.73;;;6.70;96.10;;;;;;2057887;28;20034;-75
2021/03/26 02:11:58;;;;;;;54.95;31.52;;;6.70;96.20;;;;;;2055537;28;20497;-75
2021/03/26 02:13:06;;;;;;;53.78;31.17;;;6.60;96.20;;;;;;2063847;28;20046;-74
2021/03/26 02:14:13;;;;;;;50.53;29.98;;;6.70;96.40;;;;;;2063820;28;20053;-73
2021/03/26 02:15:28;;;;;;;47.25;27.88;;;6.60;96.40;;;;;;2056622;28;20430;-75
2021/03/26 02:16:29;;;;;;;46.25;28.48;;;6.60;96.40;;;;;;2063386;28;20418;-76
2021/03/26 02:18:00;;;;;;;50.83;30.08;;;6.60;96.50;;;;;;2067754;28;20486;-75
2021/03/26 02:19:01;;;;;;;52.35;29.83;;;6.60;96.60;;;;;;2063568;28;20026;-75
2021/03/26 02:20:05;;;;;;;50.22;29.95;;;6.60;96.60;;;;;;2063759;28;20497;-75
2021/03/26 02:21:11;;;;;;;47.35;28.83;;;6.60;96.70;;;;;;2063933;28;20046;-75
2021/03/26 02:22:13;;;;;;;49.15;30.48;;;6.60;96.70;;;;;;2064736;28;20031;-75
2021/03/26 02:23:21;;;;;;;48.08;29.02;;;6.60;96.70;;;;;;2063896;28;20117;-75
2021/03/26 02:24:47;;;;;;;43.78;27.35;;;6.50;96.60;;;;;;2061472;28;20034;-75
2021/03/26 02:25:48;;;;;;;43.55;26.85;;;6.50;96.70;;;;;;2064522;28;20037;-75
2021/03/26 02:26:51;;;;;;;48.40;27.83;;;6.60;97.00;;;;;;2064657;28;20023;-75
2021/03/26 02:27:52;;;;;;;41.60;26.23;;;6.50;96.70;;;;;;2064440;28;20101;-75
2021/03/26 02:28:54;;;;;;;41.70;26.27;;;6.50;96.60;;;;;;2063594;28;20023;-76
2021/03/26 02:30:21;;;;;;;41.67;25.83;;;6.50;96.70;;;;;;2058800;28;20035;-76
2021/03/26 02:31:25;;;;;;;42.38;26.45;;;6.50;96.70;;;;;;2056610;28;20039;-76
2021/03/26 02:32:33;;;;;;;41.03;26.05;;;6.50;96.70;;;;;;2063933;28;20453;-76
2021/03/26 02:33:34;;;;;;;42.10;26.77;;;6.50;96.70;;;;;;2071068;28;20117;-75
2021/03/26 02:34:35;;;;;;;39.53;25.92;;;6.50;96.60;;;;;;2055708;28;20651;-76
2021/03/26 02:35:50;;;;;;;38.80;24.92;;;6.50;96.60;;;;;;2047707;28;20798;-76
2021/03/26 02:37:10;;;;;;;39.95;24.55;;;6.50;96.60;;;;;;2059074;28;20089;-75
2021/03/26 02:38:36;;;;;;;37.95;24.50;;;6.50;96.60;;;;;;2056370;28;20033;-76
2021/03/26 02:39:53;;;;;;;37.65;24.10;;;6.50;96.60;;;;;;2060990;28;20046;-74
2021/03/26 02:41:01;;;;;;;39.38;25.27;;;6.50;96.60;;;;;;2055926;28;20018;-75
2021/03/26 02:42:15;;;;;;;41.60;25.65;;;6.50;96.60;;;;;;2063795;28;20138;-75
2021/03/26 02:44:09;;;;;;;39.83;24.38;;;6.50;96.50;;;;;;2060113;28;20089;-75
2021/03/26 02:45:19;;;;;;;40.33;25.08;;;6.50;96.50;;;;;;2050117;28;20034;-75
2021/03/26 02:46:46;;;;;;;41.28;24.98;;;6.50;96.50;;;;;;2057221;28;20364;-75
2021/03/26 02:47:53;;;;;;;40.15;24.27;;;6.50;96.50;;;;;;2063404;28;20031;-75
2021/03/26 02:49:16;;;;;;;39.83;24.48;;;6.40;96.40;;;;;;2054867;28;20038;-74
2021/03/26 02:50:44;;;;;;;38.72;23.95;;;6.40;96.40;;;;;;2052323;28;20037;-75
2021/03/26 02:52:09;;;;;;;40.50;24.88;;;6.40;96.40;;;;;;2059470;28;20062;-74
2021/03/26 02:53:18;;;;;;;37.63;24.40;;;6.40;96.40;;;;;;2058404;28;20086;-75
2021/03/26 02:54:24;;;;;;;41.05;25.90;;;6.40;96.40;;;;;;2048616;28;20419;-75
2021/03/26 02:55:44;;;;;;;38.78;24.63;;;6.30;96.40;;;;;;2056288;28;20035;-75
2021/03/26 02:56:52;;;;;;;39.33;25.13;;;6.30;96.40;;;;;;2063508;28;20034;-75
2021/03/26 02:57:58;;;;;;;41.28;25.83;;;6.30;96.40;;;;;;2063403;28;20033;-75
2021/03/26 02:59:05;;;;;;;37.55;24.35;;;6.30;96.30;;;;;;2063080;28;20241;-74
2021/03/26 03:00:15;;;;;;;38.20;24.45;;;6.30;96.30;;;;;;2063558;28;20040;-74
2021/03/26 03:01:42;;;;;;;39.72;24.75;;;6.30;96.40;;;;;;2064064;28;20081;-75
2021/03/26 03:02:44;;;;;;;38.35;24.25;;;6.30;96.40;;;;;;2063880;28;20042;-75
2021/03/26 03:03:47;;;;;;;39.05;23.77;;;6.30;96.40;;;;;;2063355;28;20026;-75
2021/03/26 03:05:09;;;;;;;40.83;24.88;;;6.20;96.30;;;;;;2055466;28;20058;-75
2021/03/26 03:06:24;;;;;;;40.53;25.50;;;6.20;96.40;;;;;;2058376;28;20117;-74
2021/03/26 03:07:55;;;;;;;40.33;24.98;;;6.20;96.40;;;;;;2063694;28;20030;-74
2021/03/26 03:09:22;;;;;;;37.63;24.08;;;6.20;96.40;;;;;;2060234;28;20046;-75
2021/03/26 03:10:40;;;;;;;41.55;25.63;;;6.20;96.40;;;;;;2058987;28;20026;-75
2021/03/26 03:11:46;;;;;;;38.25;24.33;;;6.20;96.40;;;;;;2057730;28;20031;-75
2021/03/26 03:12:55;;;;;;;41.28;26.15;;;6.10;96.30;;;;;;2056613;28;20031;-75
2021/03/26 03:14:01;;;;;;;36.80;24.33;;;6.10;96.30;;;;;;2048003;28;20400;-75
2021/03/26 03:15:23;;;;;;;42.03;26.48;;;6.20;96.40;;;;;;2049000;28;20031;-75
2021/03/26 03:16:36;;;;;;;41.42;25.98;;;6.10;96.40;;;;;;2058135;28;20787;-76
2021/03/26 03:17:45;;;;;;;42.70;26.33;;;6.10;96.40;;;;;;2057159;28;20031;-76
2021/03/26 03:19:05;;;;;;;41.20;25.27;;;6.10;96.40;;;;;;2056714;28;20182;-75
2021/03/26 03:20:30;;;;;;;40.92;25.15;;;6.10;96.40;;;;;;2057371;28;20027;-75
2021/03/26 03:21:40;;;;;;;40.35;25.60;;;6.10;96.40;;;;;;2063677;28;20097;-76
2021/03/26 03:23:12;;;;;;;42.47;25.80;;;6.00;96.40;;;;;;2063451;28;20030;-75
2021/03/26 03:24:36;;;;;;;43.97;26.33;;;6.00;96.40;;;;;;2063738;28;20042;-76
2021/03/26 03:25:37;;;;;;;41.72;25.50;;;6.00;96.40;;;;;;2063557;28;20027;-76
2021/03/26 03:26:46;;;;;;;41.63;25.10;;;6.00;96.40;;;;;;2063702;28;20177;-77
2021/03/26 03:28:16;;;;;;;42.38;25.13;;;6.00;96.40;;;;;;2063748;28;20121;-76
2021/03/26 03:29:53;;;;;;;43.03;25.97;;;6.00;96.40;;;;;;2058665;28;20046;-75
2021/03/26 03:31:15;;;;;;;42.53;25.80;;;5.90;96.40;;;;;;2065524;28;20692;-75
2021/03/26 03:32:34;;;;;;;42.78;25.75;;;5.90;96.50;;;;;;2065849;28;20430;-75
2021/03/26 03:34:06;;;;;;;40.08;25.40;;;5.90;96.50;;;;;;2064900;28;20030;-74
2021/03/26 03:35:36;;;;;;;41.88;25.25;;;5.90;96.60;;;;;;2056824;28;20039;-75
2021/03/26 03:37:15;;;;;;;42.00;25.05;;;5.90;96.60;;;;;;2061723;28;20497;-75
2021/03/26 03:38:26;;;;;;;39.38;24.52;;;5.90;96.70;;;;;;2056723;28;20027;-75
2021/03/26 03:39:33;;;;;;;42.90;25.92;;;5.80;96.70;;;;;;2058069;28;20061;-75
2021/03/26 03:40:54;;;;;;;45.95;27.00;;;5.80;96.70;;;;;;2065087;28;20132;-74
2021/03/26 03:42:08;;;;;;;43.78;27.60;;;5.80;96.70;;;;;;2057039;28;20053;-75
2021/03/26 03:43:23;;;;;;;43.00;26.95;;;5.80;96.80;;;;;;2058776;28;20088;-75
2021/03/26 03:44:34;;;;;;;40.22;25.52;;;5.80;96.70;;;;;;2064859;28;20042;-75
2021/03/26 03:45:59;;;;;;;45.70;27.90;;;5.80;96.80;;;;;;2058164;28;20038;-74
2021/03/26 03:47:34;;;;;;;46.35;27.17;;;5.80;96.90;;;;;;2062454;28;20046;-75
2021/03/26 03:49:21;;;;;;;45.53;26.58;;;5.80;96.90;;;;;;2062481;28;20066;-74
2021/03/26 03:50:35;;;;;;;42.85;26.20;;;5.80;96.90;;;;;;2056523;28;20047;-74
2021/03/26 03:51:59;;;;;;;43.70;26.77;;;5.70;96.80;;;;;;2057730;28;20035;-74
2021/03/26 03:53:06;;;;;;;45.38;27.02;;;5.80;96.90;;;;;;2064897;28;20034;-74
2021/03/26 03:54:17;;;;;;;39.70;25.60;;;5.70;96.90;;;;;;2057967;28;20070;-74
2021/03/26 03:55:34;;;;;;;43.53;26.10;;;5.70;96.90;;;;;;2057686;28;20086;-75
2021/03/26 03:56:56;;;;;;;42.35;26.55;;;5.70;97.00;;;;;;2059028;28;20486;-74
2021/03/26 03:58:14;;;;;;;43.60;26.90;;;5.70;97.00;;;;;;2059278;28;20034;-75
2021/03/26 03:59:43;;;;;;;45.08;27.48;;;5.70;97.10;;;;;;2064710;28;20385;-75
2021/03/26 04:01:23;;;;;;;43.08;26.13;;;5.70;97.10;;;;;;2064762;28;20173;-75
2021/03/26 04:02:30;;;;;;;45.72;26.80;;;5.70;97.00;;;;;;2061323;28;20026;-75
2021/03/26 04:03:46;;;;;;;44.53;26.55;;;5.70;97.00;;;;;;2057501;28;20031;-75
2021/03/26 04:04:56;;;;;;;43.92;26.38;;;5.60;97.00;;;;;;2065388;28;20019;-74
2021/03/26 04:06:08;;;;;;;42.45;25.70;;;5.70;97.00;;;;;;2060170;28;20116;-74
2021/03/26 04:07:17;;;;;;;44.65;27.75;;;5.60;97.00;;;;;;2067129;28;20062;-75
2021/03/26 04:08:27;;;;;;;46.72;27.85;;;5.60;97.00;;;;;;2057129;28;20478;-74
2021/03/26 04:09:36;;;;;;;48.38;27.77;;;5.60;97.10;;;;;;2051083;28;20454;-74
2021/03/26 04:10:40;;;;;;;45.00;27.42;;;5.60;97.10;;;;;;2065105;28;20030;-74
2021/03/26 04:11:48;;;;;;;42.70;25.48;;;5.60;97.10;;;;;;2064802;28;20022;-75
2021/03/26 04:13:23;;;;;;;44.78;26.42;;;5.60;97.10;;;;;;2059994;28;20382;-75
2021/03/26 04:14:33;;;;;;;42.53;25.73;;;5.50;97.10;;;;;;2064987;28;20102;-75
2021/03/26 04:15:40;;;;;;;43.33;26.35;;;5.60;97.10;;;;;;2065451;28;20105;-73
2021/03/26 04:16:51;;;;;;;41.72;25.52;;;5.50;97.00;;;;;;2064616;28;20022;-75
2021/03/26 04:18:11;;;;;;;43.58;25.90;;;5.50;97.00;;;;;;2064972;28;20019;-74
2021/03/26 04:19:40;;;;;;;45.08;25.42;;;5.50;97.00;;;;;;2064638;28;20030;-74
2021/03/26 04:20:46;;;;;;;41.95;26.05;;;5.50;96.90;;;;;;2064837;28;20054;-74
2021/03/26 04:22:02;;;;;;;44.15;26.25;;;5.50;96.90;;;;;;2058128;28;20117;-74
2021/03/26 04:23:53;;;;;;;44.30;25.63;;;5.50;96.90;;;;;;2060653;28;20046;-74
2021/03/26 04:25:10;;;;;;;45.20;27.08;;;5.40;96.90;;;;;;2052942;28;20023;-74
2021/03/26 04:26:20;;;;;;;44.15;26.30;;;5.40;96.90;;;;;;2058989;28;20022;-74
2021/03/26 04:27:42;;;;;;;44.08;25.35;;;5.40;96.90;;;;;;2065775;28;20390;-75
2021/03/26 04:28:48;;;;;;;44.30;26.33;;;5.40;96.90;;;;;;2064699;28;20038;-76
2021/03/26 04:30:22;;;;;;;42.63;25.25;;;5.40;96.90;;;;;;2060784;28;20510;-76
2021/03/26 04:31:34;;;;;;;42.05;24.98;;;5.40;96.80;;;;;;2058953;28;20084;-76
2021/03/26 04:32:43;;;;;;;45.47;26.40;;;5.40;96.80;;;;;;2058739;28;20046;-76
2021/03/26 04:33:44;;;;;;;44.85;26.23;;;5.40;96.80;;;;;;2065202;28;20533;-76
2021/03/26 04:34:46;;;;;;;44.10;25.80;;;5.40;96.80;;;;;;2066096;28;20030;-75
2021/03/26 04:35:50;;;;;;;42.47;25.42;;;5.40;96.80;;;;;;2066692;28;20022;-76
2021/03/26 04:37:22;;;;;;;44.00;26.77;;;5.40;96.80;;;;;;2069667;28;20034;-76
2021/03/26 04:38:29;;;;;;;;;;;5.30;96.70;;;;;;2070194;28;20359;-76
2021/03/26 04:39:37;;;;;;;44.85;26.10;;;5.40;96.70;;;;;;2062507;28;19918;-77
2021/03/26 04:40:42;;;;;;;44.72;26.60;;;5.40;96.70;;;;;;2071084;28;20105;-77
2021/03/26 04:42:01;;;;;;;43.38;26.55;;;5.30;96.70;;;;;;2078658;28;20097;-76
2021/03/26 04:43:11;;;;;;;45.05;26.70;;;5.30;96.70;;;;;;2067351;28;20031;-76
2021/03/26 04:44:33;;;;;;;44.85;26.90;;;5.30;96.70;;;;;;2065856;28;20023;-76
2021/03/26 04:46:18;;;;;;;44.60;26.73;;;5.30;96.70;;;;;;2065154;28;20035;-76
2021/03/26 04:48:02;;;;;;;49.10;27.40;;;5.30;96.70;;;;;;2062408;28;20046;-76
2021/03/26 04:49:36;;;;;;;54.65;30.20;;;5.30;96.70;;;;;;2064526;28;20399;-76
2021/03/26 04:50:47;;;;;;;53.75;31.30;;;5.30;96.70;;;;;;2058386;28;20077;-76
2021/03/26 04:51:49;;;;;;;;;;;5.30;96.70;;;;;;2058856;28;20034;-76
2021/03/26 04:53:00;;;;;;;59.88;33.67;;;5.20;96.70;;;;;;2065236;28;20277;-76
2021/03/26 04:54:23;;;;;;;58.17;33.28;;;5.30;96.70;;;;;;2065224;28;20908;-76
2021/03/26 04:55:38;;;;;;;55.65;33.30;;;5.20;96.70;;;;;;2061228;28;20409;-76
2021/03/26 04:56:48;;;;;;;58.65;33.10;;;5.30;96.80;;;;;;2065876;28;20039;-75
2021/03/26 04:58:12;;;;;;;62.60;34.47;;;5.20;96.70;;;;;;2065392;28;20032;-76
2021/03/26 04:59:58;;;;;;;55.88;32.45;;;5.20;96.70;;;;;;2044573;29;20811;-76
2021/03/26 05:01:13;;;;;;;57.92;34.20;;;5.20;96.80;;;;;;2065405;28;20532;-76
2021/03/26 05:02:20;;;;;;;61.83;34.42;;;5.20;97.00;;;;;;2065269;28;20064;-76
2021/03/26 05:03:35;;;;;;;56.40;32.80;;;5.30;97.10;;;;;;2049693;28;20054;-76
2021/03/26 05:04:42;;;;;;;57.42;32.63;;;5.30;96.90;;;;;;2053738;28;20411;-76
2021/03/26 05:05:50;;;;;;;53.13;31.58;;;5.30;96.80;;;;;;2058514;28;20034;-76
2021/03/26 05:07:04;;;;;;;53.80;32.28;;;5.30;96.70;;;;;;2066061;28;20791;-76
2021/03/26 05:08:06;;;;;;;50.95;31.15;;;5.30;96.70;;;;;;2065789;28;20387;-76
2021/03/26 05:09:26;;;;;;;53.50;31.85;;;5.30;96.70;;;;;;2059615;28;20034;-76
2021/03/26 05:10:38;;;;;;;52.50;30.55;;;5.30;96.70;;;;;;2065354;28;20054;-76
2021/03/26 05:11:47;;;;;;;50.63;30.67;;;5.30;96.60;;;;;;2064944;28;20422;-75
2021/03/26 05:12:57;;;;;;;49.60;30.30;;;5.30;96.50;;;;;;2065225;28;20018;-75
2021/03/26 05:14:32;;;;;;;49.65;30.42;;;5.30;96.50;;;;;;2057236;28;20035;-76
2021/03/26 05:15:44;;;;;;;48.63;29.42;;;5.30;96.50;;;;;;2048151;28;20029;-76
2021/03/26 05:17:03;;;;;;;49.65;29.67;;;5.30;96.50;;;;;;2044687;28;20481;-75
2021/03/26 05:18:22;;;;;;;49.10;28.60;;;5.40;96.50;;;;;;2060919;28;20045;-75
2021/03/26 05:19:47;;;;;;;50.70;29.20;;;5.30;96.40;;;;;;2064218;28;20027;-73
2021/03/26 05:21:07;;;;;;;52.72;29.90;;;5.40;96.40;;;;;;2064758;28;20381;-73
2021/03/26 05:23:04;;;;;;;47.25;28.85;;;5.40;96.40;;;;;;2071999;28;20070;-73
2021/03/26 05:24:40;;;;;;;49.15;28.23;;;5.40;96.30;;;;;;2064814;28;20021;-74
2021/03/26 05:26:17;;;;;;;48.85;28.33;;;5.40;96.30;;;;;;2064347;28;20038;-74
2021/03/26 05:27:51;;;;;;;49.80;29.35;;;5.50;96.10;;;;;;2056072;28;20026;-74
2021/03/26 05:28:52;;;;;;;47.90;28.88;;;5.50;96.10;;;;;;2061223;28;20050;-75
2021/03/26 05:29:56;;;;;;;47.47;28.60;;;5.50;96.00;;;;;;2056876;28;20445;-75
2021/03/26 05:31:28;;;;;;;44.22;27.25;;;5.60;96.00;;;;;;2056255;28;20039;-75
2021/03/26 05:32:42;;;;;;;48.25;28.13;;;5.60;96.00;;;;;;2064891;28;20114;-76
2021/03/26 05:34:36;;;;;;;48.70;27.80;;;5.70;95.90;;;;;;2065341;28;20142;-76
2021/03/26 05:35:43;;;;;;;45.60;26.90;;;5.80;95.60;;;;;;2063934;28;20049;-76
2021/03/26 05:37:23;;;;;;;48.13;27.35;;;5.80;95.50;;;;;;2064925;28;20046;-76
2021/03/26 05:38:52;;;;;;;48.55;28.55;;;5.80;95.40;;;;;;2065288;28;20034;-76
2021/03/26 05:40:53;;;;;;;45.60;26.52;;;5.90;95.40;;;;;;2065125;28;20030;-77
2021/03/26 05:43:00;;;;;;;46.72;27.30;;;5.90;95.40;;;;;;2064370;28;20084;-75
2021/03/26 05:44:40;;;;;;;51.28;29.40;;;6.00;95.20;;;;;;2063861;28;20092;-75
2021/03/26 05:46:09;;;;;;;54.05;29.67;;;6.10;95.70;;;;;;2060277;28;20034;-76
2021/03/26 05:48:00;;;;;;;47.03;28.58;;;6.20;95.20;;;;;;2060745;28;20072;-75
2021/03/26 05:49:25;;;;;;;51.35;29.00;;;6.30;94.70;;;;;;2057633;28;20042;-74
2021/03/26 05:50:40;;;;;;;51.47;27.48;;;6.40;94.50;;;;;;2058853;28;20031;-75
2021/03/26 05:51:53;;;;;;;53.60;28.02;;;6.50;94.60;;;;;;2063901;28;20458;-76
2021/03/26 05:53:08;;;;;;;48.80;27.42;;;6.60;94.10;;;;;;2064344;28;20030;-75
2021/03/26 05:54:40;;;;;;;47.05;27.50;;;6.60;93.60;;;;;;2063641;28;20054;-76
2021/03/26 05:55:49;;;;;;;47.38;27.45;;;6.60;93.50;;;;;;2063873;28;20026;-75
2021/03/26 05:57:33;;;;;;;49.22;26.75;;;6.70;93.10;;;;;;2063752;28;20027;-76
2021/03/26 05:59:18;;;;;;;46.65;25.98;;;6.70;93.20;;;;;;2055045;28;20394;-75
2021/03/26 06:00:29;;;;;;;47.42;26.80;;;6.80;93.10;;;;;;2063787;28;20068;-74
2021/03/26 06:02:23;;;;;;;47.47;27.50;;;6.90;92.80;;;;;;2063885;28;20030;-74
2021/03/26 06:04:20;;;;;;;39.47;24.55;;;7.00;92.60;;;;;;2064509;28;20153;-74
2021/03/26 06:06:20;;;;;;;42.63;25.73;;;7.00;92.30;;;;;;2064343;28;20034;-75
2021/03/26 06:08:05;;;;;;;41.70;24.95;;;7.00;91.90;;;;;;2064450;28;20073;-75
2021/03/26 06:09:37;;;;;;;47.80;25.13;;;7.00;91.90;;;;;;2063321;28;20042;-74
2021/03/26 06:11:16;;;;;;;44.75;25.65;;;6.90;91.70;;;;;;2064274;28;20029;-74
2021/03/26 06:13:06;;;;;;;48.60;28.23;;;6.90;91.70;;;;;;2064284;28;20046;-74
2021/03/26 06:14:56;;;;;;;43.45;25.92;;;6.90;91.40;;;;;;2064286;28;20050;-75
2021/03/26 06:16:35;;;;;;;40.85;24.60;;;6.90;91.50;;;;;;2064291;28;20030;-75